sensor_id;sensor_type;location;lat;lon;timestamp;P1;durP1;ratioP1;P2;durP2;ratioP2
15878;SDS011;61999;51.514;14.614;2022-10-23T00:01:24;18.50;;;12.23;;
15878;SDS011;61999;51.514;14.614;2022-10-23T00:03:57;15.00;;;10.17;;
15878;SDS011;61999;51.514;14.614;2022-10-23T00:06:27;12.50;;;9.33;;
15878;SDS011;61999;51.514;14.614;2022-10-23T00:08:57;9.70;;;8.17;;
15878;SDS011;61999;51.514;14.614;2022-10-23T00:11:27;11.93;;;8.13;;
15878;SDS011;61999;51.514;14.614;2022-10-23T00:13:57;7.97;;;6.90;;
15878;SDS011;61999;51.514;14.614;2022-10-23T00:16:28;8.50;;;5.30;;
15878;SDS011;61999;51.514;14.614;2022-10-23T00:18:58;6.97;;;5.40;;
15878;SDS011;61999;51.514;14.614;2022-10-23T00:21:26;7.63;;;5.67;;
15878;SDS011;61999;51.514;14.614;2022-10-23T00:23:54;6.03;;;5.13;;
15878;SDS011;61999;51.514;14.614;2022-10-23T00:26:22;6.60;;;5.17;;
15878;SDS011;61999;51.514;14.614;2022-10-23T00:28:51;5.83;;;5.13;;
15878;SDS011;61999;51.514;14.614;2022-10-23T00:31:20;4.83;;;4.43;;
15878;SDS011;61999;51.514;14.614;2022-10-23T00:33:51;7.70;;;5.10;;
15878;SDS011;61999;51.514;14.614;2022-10-23T00:36:20;6.27;;;5.67;;
15878;SDS011;61999;51.514;14.614;2022-10-23T00:38:49;5.17;;;4.67;;
15878;SDS011;61999;51.514;14.614;2022-10-23T00:41:18;5.77;;;4.93;;
15878;SDS011;61999;51.514;14.614;2022-10-23T00:43:56;5.83;;;5.20;;
15878;SDS011;61999;51.514;14.614;2022-10-23T00:46:30;7.90;;;4.60;;
15878;SDS011;61999;51.514;14.614;2022-10-23T00:48:59;6.10;;;5.10;;
15878;SDS011;61999;51.514;14.614;2022-10-23T00:51:33;5.83;;;5.17;;
15878;SDS011;61999;51.514;14.614;2022-10-23T00:54:07;6.10;;;5.17;;
15878;SDS011;61999;51.514;14.614;2022-10-23T00:56:47;5.80;;;4.90;;
15878;SDS011;61999;51.514;14.614;2022-10-23T00:59:19;6.27;;;5.17;;
15878;SDS011;61999;51.514;14.614;2022-10-23T01:01:47;5.63;;;4.77;;
15878;SDS011;61999;51.514;14.614;2022-10-23T01:04:15;5.20;;;4.70;;
15878;SDS011;61999;51.514;14.614;2022-10-23T01:06:46;5.10;;;4.70;;
15878;SDS011;61999;51.514;14.614;2022-10-23T01:09:27;4.97;;;4.53;;
15878;SDS011;61999;51.514;14.614;2022-10-23T01:12:02;5.77;;;5.13;;
15878;SDS011;61999;51.514;14.614;2022-10-23T01:14:48;5.10;;;4.60;;
15878;SDS011;61999;51.514;14.614;2022-10-23T01:17:28;5.53;;;4.53;;
15878;SDS011;61999;51.514;14.614;2022-10-23T01:20:06;5.27;;;4.70;;
15878;SDS011;61999;51.514;14.614;2022-10-23T01:23:07;4.70;;;4.20;;
15878;SDS011;61999;51.514;14.614;2022-10-23T01:25:53;6.63;;;4.43;;
15878;SDS011;61999;51.514;14.614;2022-10-23T01:28:43;4.60;;;4.20;;
15878;SDS011;61999;51.514;14.614;2022-10-23T01:31:20;4.43;;;4.00;;
15878;SDS011;61999;51.514;14.614;2022-10-23T01:33:57;5.27;;;4.77;;
15878;SDS011;61999;51.514;14.614;2022-10-23T01:36:33;6.07;;;4.07;;
15878;SDS011;61999;51.514;14.614;2022-10-23T01:39:08;5.63;;;4.87;;
15878;SDS011;61999;51.514;14.614;2022-10-23T01:41:45;9.17;;;5.07;;
15878;SDS011;61999;51.514;14.614;2022-10-23T01:44:21;5.93;;;5.33;;
15878;SDS011;61999;51.514;14.614;2022-10-23T01:46:55;5.90;;;5.20;;
15878;SDS011;61999;51.514;14.614;2022-10-23T01:49:24;5.67;;;5.00;;
15878;SDS011;61999;51.514;14.614;2022-10-23T01:51:53;6.27;;;4.67;;
15878;SDS011;61999;51.514;14.614;2022-10-23T01:54:27;6.27;;;5.10;;
15878;SDS011;61999;51.514;14.614;2022-10-23T01:56:59;4.87;;;4.37;;
15878;SDS011;61999;51.514;14.614;2022-10-23T01:59:33;5.07;;;4.57;;
15878;SDS011;61999;51.514;14.614;2022-10-23T02:02:06;6.70;;;5.23;;
15878;SDS011;61999;51.514;14.614;2022-10-23T02:04:39;5.87;;;5.37;;
15878;SDS011;61999;51.514;14.614;2022-10-23T02:07:14;5.13;;;4.73;;
15878;SDS011;61999;51.514;14.614;2022-10-23T02:09:42;5.10;;;4.60;;
15878;SDS011;61999;51.514;14.614;2022-10-23T02:12:12;5.47;;;4.23;;
15878;SDS011;61999;51.514;14.614;2022-10-23T02:14:50;4.87;;;4.43;;
15878;SDS011;61999;51.514;14.614;2022-10-23T02:17:25;5.00;;;4.43;;
15878;SDS011;61999;51.514;14.614;2022-10-23T02:20:08;5.93;;;4.07;;
15878;SDS011;61999;51.514;14.614;2022-10-23T02:22:52;5.50;;;3.77;;
15878;SDS011;61999;51.514;14.614;2022-10-23T02:25:30;5.63;;;5.07;;
15878;SDS011;61999;51.514;14.614;2022-10-23T02:28:06;5.47;;;4.13;;
15878;SDS011;61999;51.514;14.614;2022-10-23T02:30:40;4.27;;;3.93;;
15878;SDS011;61999;51.514;14.614;2022-10-23T02:33:12;4.23;;;3.80;;
15878;SDS011;61999;51.514;14.614;2022-10-23T02:35:42;4.47;;;3.63;;
15878;SDS011;61999;51.514;14.614;2022-10-23T02:38:25;3.70;;;3.33;;
15878;SDS011;61999;51.514;14.614;2022-10-23T02:41:00;3.60;;;3.30;;
15878;SDS011;61999;51.514;14.614;2022-10-23T02:43:43;3.93;;;3.10;;
15878;SDS011;61999;51.514;14.614;2022-10-23T02:46:24;3.90;;;3.50;;
15878;SDS011;61999;51.514;14.614;2022-10-23T02:49:06;3.33;;;3.03;;
15878;SDS011;61999;51.514;14.614;2022-10-23T02:51:44;3.27;;;2.77;;
15878;SDS011;61999;51.514;14.614;2022-10-23T02:54:27;3.30;;;2.80;;
15878;SDS011;61999;51.514;14.614;2022-10-23T02:57:12;3.40;;;3.10;;
15878;SDS011;61999;51.514;14.614;2022-10-23T02:59:51;4.10;;;3.10;;
15878;SDS011;61999;51.514;14.614;2022-10-23T03:02:31;2.87;;;2.47;;
15878;SDS011;61999;51.514;14.614;2022-10-23T03:05:05;3.00;;;2.70;;
15878;SDS011;61999;51.514;14.614;2022-10-23T03:07:38;3.97;;;3.03;;
15878;SDS011;61999;51.514;14.614;2022-10-23T03:10:08;4.23;;;2.50;;
15878;SDS011;61999;51.514;14.614;2022-10-23T03:12:37;3.10;;;2.80;;
15878;SDS011;61999;51.514;14.614;2022-10-23T03:15:06;2.87;;;2.67;;
15878;SDS011;61999;51.514;14.614;2022-10-23T03:17:38;3.90;;;2.80;;
15878;SDS011;61999;51.514;14.614;2022-10-23T03:20:07;3.07;;;2.67;;
15878;SDS011;61999;51.514;14.614;2022-10-23T03:22:36;4.67;;;2.97;;
15878;SDS011;61999;51.514;14.614;2022-10-23T03:25:05;3.80;;;2.90;;
15878;SDS011;61999;51.514;14.614;2022-10-23T03:27:34;3.00;;;2.70;;
15878;SDS011;61999;51.514;14.614;2022-10-23T03:30:03;3.00;;;2.80;;
15878;SDS011;61999;51.514;14.614;2022-10-23T03:32:32;4.17;;;2.57;;
15878;SDS011;61999;51.514;14.614;2022-10-23T03:35:02;3.00;;;2.70;;
15878;SDS011;61999;51.514;14.614;2022-10-23T03:37:30;3.63;;;2.60;;
15878;SDS011;61999;51.514;14.614;2022-10-23T03:39:58;2.97;;;2.60;;
15878;SDS011;61999;51.514;14.614;2022-10-23T03:42:26;3.10;;;2.67;;
15878;SDS011;61999;51.514;14.614;2022-10-23T03:44:54;2.97;;;2.70;;
15878;SDS011;61999;51.514;14.614;2022-10-23T03:47:22;3.10;;;2.90;;
15878;SDS011;61999;51.514;14.614;2022-10-23T03:49:50;3.73;;;2.93;;
15878;SDS011;61999;51.514;14.614;2022-10-23T03:52:19;3.17;;;2.83;;
15878;SDS011;61999;51.514;14.614;2022-10-23T03:54:52;3.10;;;2.50;;
15878;SDS011;61999;51.514;14.614;2022-10-23T03:57:20;3.23;;;2.60;;
15878;SDS011;61999;51.514;14.614;2022-10-23T03:59:49;2.73;;;2.53;;
15878;SDS011;61999;51.514;14.614;2022-10-23T04:02:17;2.67;;;2.50;;
15878;SDS011;61999;51.514;14.614;2022-10-23T04:04:45;2.87;;;2.67;;
15878;SDS011;61999;51.514;14.614;2022-10-23T04:07:13;3.57;;;3.10;;
15878;SDS011;61999;51.514;14.614;2022-10-23T04:09:43;3.83;;;2.87;;
15878;SDS011;61999;51.514;14.614;2022-10-23T04:12:11;2.60;;;2.40;;
15878;SDS011;61999;51.514;14.614;2022-10-23T04:14:38;3.37;;;3.07;;
15878;SDS011;61999;51.514;14.614;2022-10-23T04:17:06;3.23;;;2.40;;
15878;SDS011;61999;51.514;14.614;2022-10-23T04:19:34;4.50;;;3.70;;
15878;SDS011;61999;51.514;14.614;2022-10-23T04:22:02;5.40;;;3.90;;
15878;SDS011;61999;51.514;14.614;2022-10-23T04:24:30;4.67;;;3.50;;
15878;SDS011;61999;51.514;14.614;2022-10-23T04:26:59;4.87;;;3.10;;
15878;SDS011;61999;51.514;14.614;2022-10-23T04:29:27;3.40;;;3.10;;
15878;SDS011;61999;51.514;14.614;2022-10-23T04:31:57;3.47;;;3.17;;
15878;SDS011;61999;51.514;14.614;2022-10-23T04:34:25;4.10;;;3.67;;
15878;SDS011;61999;51.514;14.614;2022-10-23T04:36:53;3.93;;;3.53;;
15878;SDS011;61999;51.514;14.614;2022-10-23T04:39:21;7.07;;;4.23;;
15878;SDS011;61999;51.514;14.614;2022-10-23T04:41:49;4.60;;;4.10;;
15878;SDS011;61999;51.514;14.614;2022-10-23T04:44:18;5.10;;;4.13;;
15878;SDS011;61999;51.514;14.614;2022-10-23T04:46:46;5.57;;;5.07;;
15878;SDS011;61999;51.514;14.614;2022-10-23T04:49:14;11.67;;;8.40;;
15878;SDS011;61999;51.514;14.614;2022-10-23T04:51:42;13.73;;;11.07;;
15878;SDS011;61999;51.514;14.614;2022-10-23T04:54:10;24.50;;;16.77;;
15878;SDS011;61999;51.514;14.614;2022-10-23T04:56:38;39.33;;;24.10;;
15878;SDS011;61999;51.514;14.614;2022-10-23T04:59:06;38.53;;;22.70;;
15878;SDS011;61999;51.514;14.614;2022-10-23T05:01:36;22.17;;;15.77;;
15878;SDS011;61999;51.514;14.614;2022-10-23T05:04:04;28.10;;;16.53;;
15878;SDS011;61999;51.514;14.614;2022-10-23T05:06:32;19.97;;;13.40;;
15878;SDS011;61999;51.514;14.614;2022-10-23T05:09:00;18.07;;;13.37;;
15878;SDS011;61999;51.514;14.614;2022-10-23T05:11:27;14.50;;;11.27;;
15878;SDS011;61999;51.514;14.614;2022-10-23T05:13:55;14.40;;;11.80;;
15878;SDS011;61999;51.514;14.614;2022-10-23T05:16:28;14.70;;;12.00;;
15878;SDS011;61999;51.514;14.614;2022-10-23T05:19:06;11.33;;;10.13;;
15878;SDS011;61999;51.514;14.614;2022-10-23T05:21:39;13.27;;;9.43;;
15878;SDS011;61999;51.514;14.614;2022-10-23T05:24:08;10.70;;;9.27;;
15878;SDS011;61999;51.514;14.614;2022-10-23T05:26:37;11.27;;;8.90;;
15878;SDS011;61999;51.514;14.614;2022-10-23T05:29:04;9.73;;;8.13;;
15878;SDS011;61999;51.514;14.614;2022-10-23T05:31:32;9.17;;;7.73;;
15878;SDS011;61999;51.514;14.614;2022-10-23T05:34:03;9.30;;;7.03;;
15878;SDS011;61999;51.514;14.614;2022-10-23T05:36:32;7.83;;;7.03;;
15878;SDS011;61999;51.514;14.614;2022-10-23T05:39:00;7.83;;;7.10;;
15878;SDS011;61999;51.514;14.614;2022-10-23T05:41:30;7.70;;;6.90;;
15878;SDS011;61999;51.514;14.614;2022-10-23T05:43:58;12.27;;;9.13;;
15878;SDS011;61999;51.514;14.614;2022-10-23T05:46:26;9.50;;;8.20;;
15878;SDS011;61999;51.514;14.614;2022-10-23T05:48:55;8.93;;;8.03;;
15878;SDS011;61999;51.514;14.614;2022-10-23T05:51:28;9.40;;;8.00;;
15878;SDS011;61999;51.514;14.614;2022-10-23T05:53:56;11.40;;;8.87;;
15878;SDS011;61999;51.514;14.614;2022-10-23T05:56:23;12.93;;;9.57;;
15878;SDS011;61999;51.514;14.614;2022-10-23T05:58:51;12.97;;;9.03;;
15878;SDS011;61999;51.514;14.614;2022-10-23T06:01:19;11.13;;;9.27;;
15878;SDS011;61999;51.514;14.614;2022-10-23T06:03:48;10.87;;;9.43;;
15878;SDS011;61999;51.514;14.614;2022-10-23T06:06:18;11.87;;;9.53;;
15878;SDS011;61999;51.514;14.614;2022-10-23T06:08:46;11.20;;;9.07;;
15878;SDS011;61999;51.514;14.614;2022-10-23T06:11:14;10.07;;;8.43;;
15878;SDS011;61999;51.514;14.614;2022-10-23T06:13:43;13.00;;;9.43;;
15878;SDS011;61999;51.514;14.614;2022-10-23T06:16:14;11.90;;;8.87;;
15878;SDS011;61999;51.514;14.614;2022-10-23T06:18:44;8.63;;;7.70;;
15878;SDS011;61999;51.514;14.614;2022-10-23T06:21:14;8.40;;;7.23;;
15878;SDS011;61999;51.514;14.614;2022-10-23T06:23:44;7.93;;;7.13;;
15878;SDS011;61999;51.514;14.614;2022-10-23T06:26:14;7.40;;;6.70;;
15878;SDS011;61999;51.514;14.614;2022-10-23T06:28:44;7.30;;;6.60;;
15878;SDS011;61999;51.514;14.614;2022-10-23T06:31:13;8.33;;;7.33;;
15878;SDS011;61999;51.514;14.614;2022-10-23T06:33:44;14.83;;;10.60;;
15878;SDS011;61999;51.514;14.614;2022-10-23T06:36:12;15.27;;;10.70;;
15878;SDS011;61999;51.514;14.614;2022-10-23T06:38:40;16.53;;;10.50;;
15878;SDS011;61999;51.514;14.614;2022-10-23T06:41:11;24.53;;;16.90;;
15878;SDS011;61999;51.514;14.614;2022-10-23T06:43:42;29.73;;;21.77;;
15878;SDS011;61999;51.514;14.614;2022-10-23T06:46:10;32.40;;;26.00;;
15878;SDS011;61999;51.514;14.614;2022-10-23T06:48:39;31.33;;;24.57;;
15878;SDS011;61999;51.514;14.614;2022-10-23T06:51:09;29.40;;;23.47;;
15878;SDS011;61999;51.514;14.614;2022-10-23T06:53:40;24.80;;;21.00;;
15878;SDS011;61999;51.514;14.614;2022-10-23T06:56:10;22.63;;;19.10;;
15878;SDS011;61999;51.514;14.614;2022-10-23T06:58:39;19.47;;;15.83;;
15878;SDS011;61999;51.514;14.614;2022-10-23T07:01:08;15.60;;;13.77;;
15878;SDS011;61999;51.514;14.614;2022-10-23T07:03:39;12.97;;;11.03;;
15878;SDS011;61999;51.514;14.614;2022-10-23T07:06:07;14.83;;;12.40;;
15878;SDS011;61999;51.514;14.614;2022-10-23T07:08:36;12.60;;;11.30;;
15878;SDS011;61999;51.514;14.614;2022-10-23T07:11:05;11.17;;;10.07;;
15878;SDS011;61999;51.514;14.614;2022-10-23T07:13:36;10.37;;;9.37;;
15878;SDS011;61999;51.514;14.614;2022-10-23T07:16:12;10.20;;;8.57;;
15878;SDS011;61999;51.514;14.614;2022-10-23T07:18:43;8.73;;;7.83;;
15878;SDS011;61999;51.514;14.614;2022-10-23T07:21:12;8.50;;;7.70;;
15878;SDS011;61999;51.514;14.614;2022-10-23T07:23:40;9.07;;;8.17;;
15878;SDS011;61999;51.514;14.614;2022-10-23T07:26:09;10.20;;;9.20;;
15878;SDS011;61999;51.514;14.614;2022-10-23T07:28:42;10.60;;;9.50;;
15878;SDS011;61999;51.514;14.614;2022-10-23T07:31:13;10.93;;;9.37;;
15878;SDS011;61999;51.514;14.614;2022-10-23T07:33:41;8.97;;;7.90;;
15878;SDS011;61999;51.514;14.614;2022-10-23T07:36:09;8.63;;;7.40;;
15878;SDS011;61999;51.514;14.614;2022-10-23T07:38:37;8.03;;;7.23;;
15878;SDS011;61999;51.514;14.614;2022-10-23T07:41:05;7.40;;;6.70;;
15878;SDS011;61999;51.514;14.614;2022-10-23T07:43:34;6.53;;;5.93;;
15878;SDS011;61999;51.514;14.614;2022-10-23T07:46:03;6.90;;;5.20;;
15878;SDS011;61999;51.514;14.614;2022-10-23T07:48:33;6.57;;;5.80;;
15878;SDS011;61999;51.514;14.614;2022-10-23T07:51:02;5.90;;;5.30;;
15878;SDS011;61999;51.514;14.614;2022-10-23T07:53:34;6.07;;;5.27;;
15878;SDS011;61999;51.514;14.614;2022-10-23T07:56:03;6.03;;;4.93;;
15878;SDS011;61999;51.514;14.614;2022-10-23T07:58:39;6.77;;;5.07;;
15878;SDS011;61999;51.514;14.614;2022-10-23T08:01:14;5.90;;;5.33;;
15878;SDS011;61999;51.514;14.614;2022-10-23T08:03:46;5.57;;;4.80;;
15878;SDS011;61999;51.514;14.614;2022-10-23T08:06:14;5.53;;;5.03;;
15878;SDS011;61999;51.514;14.614;2022-10-23T08:08:42;5.43;;;4.93;;
15878;SDS011;61999;51.514;14.614;2022-10-23T08:11:14;5.10;;;4.60;;
15878;SDS011;61999;51.514;14.614;2022-10-23T08:13:50;6.43;;;4.70;;
15878;SDS011;61999;51.514;14.614;2022-10-23T08:16:19;4.77;;;4.27;;
15878;SDS011;61999;51.514;14.614;2022-10-23T08:18:48;5.30;;;4.70;;
15878;SDS011;61999;51.514;14.614;2022-10-23T08:21:16;5.20;;;4.70;;
15878;SDS011;61999;51.514;14.614;2022-10-23T08:23:45;5.03;;;4.30;;
15878;SDS011;61999;51.514;14.614;2022-10-23T08:26:13;5.50;;;4.90;;
15878;SDS011;61999;51.514;14.614;2022-10-23T08:28:41;5.47;;;4.47;;
15878;SDS011;61999;51.514;14.614;2022-10-23T08:31:10;5.90;;;4.70;;
15878;SDS011;61999;51.514;14.614;2022-10-23T08:33:42;4.37;;;3.97;;
15878;SDS011;61999;51.514;14.614;2022-10-23T08:36:14;5.10;;;4.60;;
15878;SDS011;61999;51.514;14.614;2022-10-23T08:38:45;4.63;;;4.17;;
15878;SDS011;61999;51.514;14.614;2022-10-23T08:41:18;5.03;;;4.50;;
15878;SDS011;61999;51.514;14.614;2022-10-23T08:43:55;5.43;;;4.17;;
15878;SDS011;61999;51.514;14.614;2022-10-23T08:46:34;4.77;;;4.30;;
15878;SDS011;61999;51.514;14.614;2022-10-23T08:49:16;6.60;;;4.33;;
15878;SDS011;61999;51.514;14.614;2022-10-23T08:51:55;4.63;;;3.67;;
15878;SDS011;61999;51.514;14.614;2022-10-23T08:54:30;5.87;;;4.60;;
15878;SDS011;61999;51.514;14.614;2022-10-23T08:57:11;4.90;;;4.40;;
15878;SDS011;61999;51.514;14.614;2022-10-23T08:59:43;5.17;;;4.07;;
15878;SDS011;61999;51.514;14.614;2022-10-23T09:02:16;5.17;;;4.30;;
15878;SDS011;61999;51.514;14.614;2022-10-23T09:04:52;4.43;;;3.90;;
15878;SDS011;61999;51.514;14.614;2022-10-23T09:07:26;5.73;;;3.63;;
15878;SDS011;61999;51.514;14.614;2022-10-23T09:10:11;4.67;;;3.73;;
15878;SDS011;61999;51.514;14.614;2022-10-23T09:13:01;3.93;;;3.53;;
15878;SDS011;61999;51.514;14.614;2022-10-23T09:15:57;3.50;;;3.20;;
15878;SDS011;61999;51.514;14.614;2022-10-23T09:18:37;3.70;;;3.40;;
15878;SDS011;61999;51.514;14.614;2022-10-23T09:21:09;4.23;;;3.83;;
15878;SDS011;61999;51.514;14.614;2022-10-23T09:23:37;4.47;;;3.53;;
15878;SDS011;61999;51.514;14.614;2022-10-23T09:26:09;3.47;;;3.07;;
15878;SDS011;61999;51.514;14.614;2022-10-23T09:28:44;4.60;;;3.50;;
15878;SDS011;61999;51.514;14.614;2022-10-23T09:31:15;3.53;;;3.23;;
15878;SDS011;61999;51.514;14.614;2022-10-23T09:33:55;3.47;;;3.10;;
15878;SDS011;61999;51.514;14.614;2022-10-23T09:36:27;4.50;;;3.40;;
15878;SDS011;61999;51.514;14.614;2022-10-23T09:38:56;3.33;;;3.03;;
15878;SDS011;61999;51.514;14.614;2022-10-23T09:41:27;3.90;;;3.60;;
15878;SDS011;61999;51.514;14.614;2022-10-23T09:44:01;3.70;;;3.27;;
15878;SDS011;61999;51.514;14.614;2022-10-23T09:46:43;4.10;;;3.57;;
15878;SDS011;61999;51.514;14.614;2022-10-23T09:49:19;3.67;;;3.37;;
15878;SDS011;61999;51.514;14.614;2022-10-23T09:54:52;3.97;;;3.20;;
15878;SDS011;61999;51.514;14.614;2022-10-23T09:57:23;3.80;;;3.50;;
15878;SDS011;61999;51.514;14.614;2022-10-23T09:59:57;3.50;;;3.00;;
15878;SDS011;61999;51.514;14.614;2022-10-23T10:02:33;3.67;;;2.97;;
15878;SDS011;61999;51.514;14.614;2022-10-23T10:05:17;4.07;;;3.00;;
15878;SDS011;61999;51.514;14.614;2022-10-23T10:07:54;4.73;;;3.00;;
15878;SDS011;61999;51.514;14.614;2022-10-23T10:10:28;3.73;;;3.17;;
15878;SDS011;61999;51.514;14.614;2022-10-23T10:13:05;4.77;;;3.30;;
15878;SDS011;61999;51.514;14.614;2022-10-23T10:16:31;3.50;;;2.77;;
15878;SDS011;61999;51.514;14.614;2022-10-23T10:19:14;4.30;;;2.83;;
15878;SDS011;61999;51.514;14.614;2022-10-23T10:22:15;3.93;;;2.80;;
15878;SDS011;61999;51.514;14.614;2022-10-23T10:24:57;5.27;;;2.57;;
15878;SDS011;61999;51.514;14.614;2022-10-23T10:27:37;3.53;;;2.90;;
15878;SDS011;61999;51.514;14.614;2022-10-23T10:30:18;4.00;;;3.03;;
15878;SDS011;61999;51.514;14.614;2022-10-23T10:32:49;3.90;;;3.10;;
15878;SDS011;61999;51.514;14.614;2022-10-23T10:35:25;3.20;;;2.90;;
15878;SDS011;61999;51.514;14.614;2022-10-23T10:38:19;3.63;;;3.23;;
15878;SDS011;61999;51.514;14.614;2022-10-23T10:44:17;4.33;;;2.70;;
15878;SDS011;61999;51.514;14.614;2022-10-23T10:47:05;5.20;;;2.83;;
15878;SDS011;61999;51.514;14.614;2022-10-23T10:49:47;4.83;;;3.20;;
15878;SDS011;61999;51.514;14.614;2022-10-23T10:52:30;4.10;;;3.10;;
15878;SDS011;61999;51.514;14.614;2022-10-23T10:55:14;3.13;;;2.90;;
15878;SDS011;61999;51.514;14.614;2022-10-23T10:57:54;3.60;;;2.97;;
15878;SDS011;61999;51.514;14.614;2022-10-23T11:00:28;3.73;;;2.77;;
15878;SDS011;61999;51.514;14.614;2022-10-23T11:03:01;3.30;;;3.00;;
15878;SDS011;61999;51.514;14.614;2022-10-23T11:05:44;3.33;;;3.03;;
15878;SDS011;61999;51.514;14.614;2022-10-23T11:08:16;3.90;;;2.70;;
15878;SDS011;61999;51.514;14.614;2022-10-23T11:10:53;5.27;;;3.10;;
15878;SDS011;61999;51.514;14.614;2022-10-23T11:13:32;4.90;;;3.60;;
15878;SDS011;61999;51.514;14.614;2022-10-23T11:16:04;4.40;;;3.43;;
15878;SDS011;61999;51.514;14.614;2022-10-23T11:18:41;3.53;;;3.13;;
15878;SDS011;61999;51.514;14.614;2022-10-23T11:21:18;3.80;;;3.40;;
15878;SDS011;61999;51.514;14.614;2022-10-23T11:24:08;3.60;;;3.30;;
15878;SDS011;61999;51.514;14.614;2022-10-23T11:27:24;3.90;;;3.07;;
15878;SDS011;61999;51.514;14.614;2022-10-23T11:30:14;3.33;;;2.83;;
15878;SDS011;61999;51.514;14.614;2022-10-23T11:32:55;4.03;;;3.07;;
15878;SDS011;61999;51.514;14.614;2022-10-23T11:35:53;3.57;;;2.83;;
15878;SDS011;61999;51.514;14.614;2022-10-23T11:38:33;2.90;;;2.70;;
15878;SDS011;61999;51.514;14.614;2022-10-23T11:41:04;3.73;;;3.30;;
15878;SDS011;61999;51.514;14.614;2022-10-23T11:43:48;4.27;;;3.03;;
15878;SDS011;61999;51.514;14.614;2022-10-23T11:46:32;4.70;;;3.20;;
15878;SDS011;61999;51.514;14.614;2022-10-23T11:49:02;3.70;;;2.80;;
15878;SDS011;61999;51.514;14.614;2022-10-23T11:51:32;3.77;;;3.00;;
15878;SDS011;61999;51.514;14.614;2022-10-23T11:54:19;4.17;;;2.87;;
15878;SDS011;61999;51.514;14.614;2022-10-23T11:56:52;3.93;;;2.90;;
15878;SDS011;61999;51.514;14.614;2022-10-23T11:59:32;4.40;;;2.97;;
15878;SDS011;61999;51.514;14.614;2022-10-23T12:04:53;3.20;;;2.90;;
15878;SDS011;61999;51.514;14.614;2022-10-23T12:07:23;3.33;;;2.90;;
15878;SDS011;61999;51.514;14.614;2022-10-23T12:09:56;3.30;;;2.97;;
15878;SDS011;61999;51.514;14.614;2022-10-23T12:12:29;3.63;;;2.87;;
15878;SDS011;61999;51.514;14.614;2022-10-23T12:15:07;3.00;;;2.70;;
15878;SDS011;61999;51.514;14.614;2022-10-23T12:17:49;3.00;;;2.80;;
15878;SDS011;61999;51.514;14.614;2022-10-23T12:20:22;4.70;;;2.63;;
15878;SDS011;61999;51.514;14.614;2022-10-23T12:23:02;3.23;;;2.50;;
15878;SDS011;61999;51.514;14.614;2022-10-23T12:25:50;4.50;;;2.10;;
15878;SDS011;61999;51.514;14.614;2022-10-23T12:28:38;3.00;;;2.50;;
15878;SDS011;61999;51.514;14.614;2022-10-23T12:31:20;5.70;;;2.80;;
15878;SDS011;61999;51.514;14.614;2022-10-23T12:34:07;3.30;;;2.30;;
15878;SDS011;61999;51.514;14.614;2022-10-23T12:36:57;4.43;;;2.50;;
15878;SDS011;61999;51.514;14.614;2022-10-23T12:39:42;3.50;;;2.83;;
15878;SDS011;61999;51.514;14.614;2022-10-23T12:42:12;3.10;;;2.50;;
15878;SDS011;61999;51.514;14.614;2022-10-23T12:44:56;3.57;;;2.70;;
15878;SDS011;61999;51.514;14.614;2022-10-23T12:47:25;3.07;;;2.47;;
15878;SDS011;61999;51.514;14.614;2022-10-23T12:49:56;3.77;;;2.90;;
15878;SDS011;61999;51.514;14.614;2022-10-23T12:52:24;3.87;;;2.90;;
15878;SDS011;61999;51.514;14.614;2022-10-23T12:54:52;3.07;;;2.87;;
15878;SDS011;61999;51.514;14.614;2022-10-23T12:57:21;5.50;;;2.80;;
15878;SDS011;61999;51.514;14.614;2022-10-23T12:59:52;5.40;;;3.07;;
15878;SDS011;61999;51.514;14.614;2022-10-23T13:02:24;3.40;;;3.10;;
15878;SDS011;61999;51.514;14.614;2022-10-23T13:04:58;4.03;;;3.30;;
15878;SDS011;61999;51.514;14.614;2022-10-23T13:07:33;3.20;;;2.90;;
15878;SDS011;61999;51.514;14.614;2022-10-23T13:10:10;4.10;;;3.40;;
15878;SDS011;61999;51.514;14.614;2022-10-23T13:12:43;3.20;;;2.90;;
15878;SDS011;61999;51.514;14.614;2022-10-23T13:15:20;3.93;;;3.13;;
15878;SDS011;61999;51.514;14.614;2022-10-23T13:18:00;3.50;;;3.17;;
15878;SDS011;61999;51.514;14.614;2022-10-23T13:20:34;3.80;;;2.93;;
15878;SDS011;61999;51.514;14.614;2022-10-23T13:23:08;3.00;;;2.80;;
15878;SDS011;61999;51.514;14.614;2022-10-23T13:25:51;5.93;;;3.20;;
15878;SDS011;61999;51.514;14.614;2022-10-23T13:28:22;5.13;;;3.30;;
15878;SDS011;61999;51.514;14.614;2022-10-23T13:30:57;4.93;;;3.10;;
15878;SDS011;61999;51.514;14.614;2022-10-23T13:33:48;2.83;;;2.50;;
15878;SDS011;61999;51.514;14.614;2022-10-23T13:36:31;4.17;;;3.13;;
15878;SDS011;61999;51.514;14.614;2022-10-23T13:39:11;3.20;;;2.90;;
15878;SDS011;61999;51.514;14.614;2022-10-23T13:41:41;3.80;;;3.27;;
15878;SDS011;61999;51.514;14.614;2022-10-23T13:44:13;3.37;;;3.00;;
15878;SDS011;61999;51.514;14.614;2022-10-23T13:46:43;2.87;;;2.60;;
15878;SDS011;61999;51.514;14.614;2022-10-23T13:49:13;3.60;;;2.87;;
15878;SDS011;61999;51.514;14.614;2022-10-23T13:51:44;5.00;;;3.30;;
15878;SDS011;61999;51.514;14.614;2022-10-23T13:54:16;3.03;;;2.73;;
15878;SDS011;61999;51.514;14.614;2022-10-23T13:56:48;2.67;;;2.37;;
15878;SDS011;61999;51.514;14.614;2022-10-23T13:59:17;2.90;;;2.70;;
15878;SDS011;61999;51.514;14.614;2022-10-23T14:01:45;2.67;;;2.47;;
15878;SDS011;61999;51.514;14.614;2022-10-23T14:04:16;3.60;;;2.90;;
15878;SDS011;61999;51.514;14.614;2022-10-23T14:06:47;3.40;;;2.70;;
15878;SDS011;61999;51.514;14.614;2022-10-23T14:09:16;3.23;;;2.93;;
15878;SDS011;61999;51.514;14.614;2022-10-23T14:11:44;4.20;;;3.10;;
15878;SDS011;61999;51.514;14.614;2022-10-23T14:14:13;5.43;;;3.33;;
15878;SDS011;61999;51.514;14.614;2022-10-23T14:16:40;4.90;;;4.07;;
15878;SDS011;61999;51.514;14.614;2022-10-23T14:19:09;5.43;;;3.53;;
15878;SDS011;61999;51.514;14.614;2022-10-23T14:21:37;3.20;;;2.90;;
15878;SDS011;61999;51.514;14.614;2022-10-23T14:24:07;4.50;;;3.60;;
15878;SDS011;61999;51.514;14.614;2022-10-23T14:26:35;4.10;;;3.33;;
15878;SDS011;61999;51.514;14.614;2022-10-23T14:29:03;3.93;;;3.63;;
15878;SDS011;61999;51.514;14.614;2022-10-23T14:31:31;6.10;;;3.77;;
15878;SDS011;61999;51.514;14.614;2022-10-23T14:33:59;3.90;;;3.50;;
15878;SDS011;61999;51.514;14.614;2022-10-23T14:36:27;4.30;;;3.60;;
15878;SDS011;61999;51.514;14.614;2022-10-23T14:38:56;5.87;;;4.50;;
15878;SDS011;61999;51.514;14.614;2022-10-23T14:41:26;4.17;;;3.77;;
15878;SDS011;61999;51.514;14.614;2022-10-23T14:43:55;5.10;;;3.73;;
15878;SDS011;61999;51.514;14.614;2022-10-23T14:46:23;5.23;;;4.37;;
15878;SDS011;61999;51.514;14.614;2022-10-23T14:48:52;4.83;;;4.00;;
15878;SDS011;61999;51.514;14.614;2022-10-23T14:51:23;5.03;;;3.80;;
15878;SDS011;61999;51.514;14.614;2022-10-23T14:53:53;5.93;;;4.60;;
15878;SDS011;61999;51.514;14.614;2022-10-23T14:56:24;5.43;;;4.27;;
15878;SDS011;61999;51.514;14.614;2022-10-23T14:58:55;5.60;;;4.50;;
15878;SDS011;61999;51.514;14.614;2022-10-23T15:01:27;5.57;;;5.03;;
15878;SDS011;61999;51.514;14.614;2022-10-23T15:03:55;4.73;;;4.27;;
15878;SDS011;61999;51.514;14.614;2022-10-23T15:06:26;4.43;;;4.03;;
15878;SDS011;61999;51.514;14.614;2022-10-23T15:08:54;4.87;;;4.37;;
15878;SDS011;61999;51.514;14.614;2022-10-23T15:11:28;4.40;;;4.00;;
15878;SDS011;61999;51.514;14.614;2022-10-23T15:14:05;4.50;;;4.10;;
15878;SDS011;61999;51.514;14.614;2022-10-23T15:17:00;5.70;;;5.13;;